RYR947 LOWW-EPKK
Flight info
| Callsign | RYR947 |
|---|---|
| Flight time | 0h 38m |
| Altitude | 27000 |
| Route | LEDVA DCT NETIR |
| Aircraft | A320/M-SDE3FGHIRWY/LB1 |
Departure
| Time | 2026-05-05 07:12 |
|---|---|
| Airport | Vienna International Airport (LOWW) |
Arrival
| Time | 2026-05-05 07:51 |
|---|---|
| Airport | Kraków John Paul II International Airport (EPKK) |
| Time | Latitude | Longitude | Altitude | Speed | Heading |
|---|---|---|---|---|---|
| 2026-05-05 06:47 | 48.12086 | 16.55665 | 615 ft | 0 kts | 116° |
| 2026-05-05 07:04 | 48.12094 | 16.55642 | 622 ft | 4 kts | 120° |
| 2026-05-05 07:05 | 48.12109 | 16.55609 | 626 ft | 4 kts | 139° |
| 2026-05-05 07:05 | 48.12130 | 16.55594 | 622 ft | 4 kts | 197° |
| 2026-05-05 07:05 | 48.12134 | 16.55596 | 624 ft | 0 kts | 206° |
| 2026-05-05 07:07 | 48.12121 | 16.55586 | 621 ft | 4 kts | 206° |
| 2026-05-05 07:07 | 48.12070 | 16.55549 | 610 ft | 11 kts | 206° |
| 2026-05-05 07:07 | 48.11992 | 16.55493 | 614 ft | 14 kts | 206° |
| 2026-05-05 07:08 | 48.11898 | 16.55461 | 619 ft | 15 kts | 150° |
| 2026-05-05 07:08 | 48.11847 | 16.55601 | 610 ft | 16 kts | 115° |
| 2026-05-05 07:08 | 48.11796 | 16.55758 | 615 ft | 18 kts | 116° |
| 2026-05-05 07:08 | 48.11739 | 16.55929 | 615 ft | 19 kts | 116° |
| 2026-05-05 07:09 | 48.11680 | 16.56111 | 614 ft | 20 kts | 115° |
| 2026-05-05 07:09 | 48.11618 | 16.56302 | 610 ft | 21 kts | 116° |
| 2026-05-05 07:09 | 48.11552 | 16.56503 | 619 ft | 22 kts | 116° |
| 2026-05-05 07:09 | 48.11484 | 16.56713 | 620 ft | 23 kts | 116° |
| 2026-05-05 07:10 | 48.11414 | 16.56927 | 618 ft | 23 kts | 116° |
| 2026-05-05 07:10 | 48.11347 | 16.57127 | 610 ft | 20 kts | 116° |
| 2026-05-05 07:10 | 48.11285 | 16.57320 | 610 ft | 20 kts | 114° |
| 2026-05-05 07:10 | 48.11226 | 16.57514 | 617 ft | 21 kts | 115° |
| 2026-05-05 07:11 | 48.11163 | 16.57708 | 623 ft | 21 kts | 117° |
| 2026-05-05 07:11 | 48.11099 | 16.57892 | 612 ft | 20 kts | 117° |
| 2026-05-05 07:11 | 48.11042 | 16.58062 | 613 ft | 18 kts | 117° |
| 2026-05-05 07:11 | 48.10983 | 16.58210 | 614 ft | 14 kts | 123° |
| 2026-05-05 07:12 | 48.10860 | 16.58291 | 623 ft | 41 kts | 163° |
| 2026-05-05 07:12 | 48.10347 | 16.58511 | 621 ft | 108 kts | 164° |
| 2026-05-05 07:12 | 48.09467 | 16.58890 | 634 ft | 154 kts | 164° |
| 2026-05-05 07:12 | 48.08399 | 16.59317 | 1262 ft | 155 kts | 165° |
| 2026-05-05 07:13 | 48.07369 | 16.59730 | 1992 ft | 157 kts | 168° |
| 2026-05-05 07:13 | 48.06280 | 16.60300 | 2385 ft | 179 kts | 156° |
| 2026-05-05 07:13 | 48.05236 | 16.61593 | 2699 ft | 209 kts | 132° |
| 2026-05-05 07:13 | 48.04603 | 16.63635 | 3365 ft | 224 kts | 105° |
| 2026-05-05 07:14 | 48.04628 | 16.65962 | 4109 ft | 235 kts | 77° |
| 2026-05-05 07:14 | 48.05413 | 16.68128 | 4851 ft | 243 kts | 47° |
| 2026-05-05 07:14 | 48.06721 | 16.69809 | 5417 ft | 258 kts | 39° |
| 2026-05-05 07:14 | 48.08225 | 16.71506 | 5863 ft | 283 kts | 37° |
| 2026-05-05 07:15 | 48.09861 | 16.73283 | 6422 ft | 297 kts | 36° |
| 2026-05-05 07:15 | 48.11549 | 16.75107 | 7230 ft | 302 kts | 37° |
| 2026-05-05 07:15 | 48.13286 | 16.76900 | 8086 ft | 305 kts | 29° |
| 2026-05-05 07:15 | 48.15257 | 16.78113 | 8993 ft | 308 kts | 13° |
| 2026-05-05 07:16 | 48.17385 | 16.78542 | 9910 ft | 310 kts | 358° |
| 2026-05-05 07:16 | 48.19538 | 16.78186 | 10625 ft | 319 kts | 348° |
| 2026-05-05 07:16 | 48.21810 | 16.77583 | 10918 ft | 343 kts | 348° |
| 2026-05-05 07:16 | 48.24226 | 16.76930 | 11328 ft | 359 kts | 348° |
| 2026-05-05 07:17 | 48.26707 | 16.76262 | 12005 ft | 365 kts | 348° |
| 2026-05-05 07:17 | 48.29218 | 16.75591 | 12732 ft | 369 kts | 348° |
| 2026-05-05 07:17 | 48.31764 | 16.74920 | 13466 ft | 373 kts | 348° |
| 2026-05-05 07:17 | 48.34372 | 16.74622 | 14129 ft | 379 kts | 360° |
| 2026-05-05 07:18 | 48.36994 | 16.75136 | 14757 ft | 384 kts | 15° |
| 2026-05-05 07:18 | 48.39416 | 16.76729 | 15389 ft | 388 kts | 33° |
| 2026-05-05 07:18 | 48.41497 | 16.79330 | 16023 ft | 391 kts | 44° |
| 2026-05-05 07:18 | 48.42834 | 16.81226 | 16452 ft | 393 kts | 44° |
| 2026-05-05 07:19 | 48.45462 | 16.85020 | 17274 ft | 398 kts | 45° |
| 2026-05-05 07:19 | 48.47460 | 16.87933 | 17887 ft | 401 kts | 45° |
| 2026-05-05 07:19 | 48.49476 | 16.90874 | 18457 ft | 405 kts | 45° |
| 2026-05-05 07:19 | 48.51505 | 16.93833 | 19008 ft | 408 kts | 44° |
| 2026-05-05 07:20 | 48.53555 | 16.96818 | 19591 ft | 411 kts | 44° |
| 2026-05-05 07:20 | 48.55618 | 16.99822 | 20193 ft | 413 kts | 44° |
| 2026-05-05 07:20 | 48.57688 | 17.02836 | 20783 ft | 415 kts | 44° |
| 2026-05-05 07:20 | 48.59776 | 17.05873 | 21355 ft | 418 kts | 44° |
| 2026-05-05 07:21 | 48.61194 | 17.07939 | 21751 ft | 419 kts | 44° |
| 2026-05-05 07:21 | 48.63296 | 17.11003 | 22304 ft | 422 kts | 44° |
| 2026-05-05 07:21 | 48.65416 | 17.14098 | 22838 ft | 425 kts | 44° |
| 2026-05-05 07:21 | 48.67546 | 17.17215 | 23354 ft | 427 kts | 44° |
| 2026-05-05 07:22 | 48.69694 | 17.20359 | 23758 ft | 431 kts | 44° |
| 2026-05-05 07:22 | 48.71830 | 17.23486 | 24151 ft | 434 kts | 44° |
| 2026-05-05 07:22 | 48.74038 | 17.26722 | 24524 ft | 438 kts | 44° |
| 2026-05-05 07:22 | 48.76200 | 17.29898 | 24942 ft | 440 kts | 44° |
| 2026-05-05 07:23 | 48.78400 | 17.33132 | 25316 ft | 442 kts | 44° |
| 2026-05-05 07:23 | 48.80610 | 17.36389 | 25748 ft | 444 kts | 44° |
| 2026-05-05 07:23 | 48.82833 | 17.39667 | 26100 ft | 447 kts | 44° |
| 2026-05-05 07:23 | 48.85066 | 17.42961 | 26494 ft | 448 kts | 44° |
| 2026-05-05 07:24 | 48.87305 | 17.46268 | 26822 ft | 451 kts | 44° |
| 2026-05-05 07:24 | 48.89547 | 17.49588 | 26906 ft | 445 kts | 44° |
| 2026-05-05 07:24 | 48.91739 | 17.52841 | 26919 ft | 439 kts | 44° |
| 2026-05-05 07:24 | 48.93913 | 17.56067 | 26918 ft | 435 kts | 44° |
| 2026-05-05 07:25 | 48.96083 | 17.59286 | 26918 ft | 435 kts | 44° |
| 2026-05-05 07:25 | 48.98247 | 17.62504 | 26918 ft | 434 kts | 44° |
| 2026-05-05 07:25 | 49.00411 | 17.65729 | 26917 ft | 435 kts | 44° |
| 2026-05-05 07:25 | 49.02572 | 17.68954 | 26916 ft | 435 kts | 44° |
| 2026-05-05 07:26 | 49.04728 | 17.72179 | 26920 ft | 435 kts | 44° |
| 2026-05-05 07:26 | 49.06891 | 17.75418 | 26915 ft | 435 kts | 44° |
| 2026-05-05 07:26 | 49.09048 | 17.78646 | 26910 ft | 434 kts | 44° |
| 2026-05-05 07:26 | 49.11201 | 17.81870 | 26902 ft | 434 kts | 44° |
| 2026-05-05 07:27 | 49.13355 | 17.85099 | 26904 ft | 434 kts | 44° |
| 2026-05-05 07:27 | 49.15504 | 17.88325 | 26898 ft | 434 kts | 44° |
| 2026-05-05 07:27 | 49.17659 | 17.91571 | 26901 ft | 434 kts | 44° |
| 2026-05-05 07:27 | 49.19808 | 17.94819 | 26904 ft | 434 kts | 44° |
| 2026-05-05 07:28 | 49.21953 | 17.98064 | 26902 ft | 434 kts | 44° |
| 2026-05-05 07:28 | 49.24098 | 18.01309 | 26907 ft | 434 kts | 44° |
| 2026-05-05 07:28 | 49.26241 | 18.04551 | 26693 ft | 430 kts | 44° |
| 2026-05-05 07:28 | 49.28370 | 18.07774 | 26432 ft | 431 kts | 44° |
| 2026-05-05 07:29 | 49.30465 | 18.10955 | 26190 ft | 428 kts | 44° |
| 2026-05-05 07:29 | 49.32574 | 18.14163 | 25943 ft | 428 kts | 44° |
| 2026-05-05 07:29 | 49.34682 | 18.17369 | 25694 ft | 426 kts | 44° |
| 2026-05-05 07:29 | 49.36779 | 18.20566 | 25451 ft | 424 kts | 44° |
| 2026-05-05 07:30 | 49.38869 | 18.23751 | 25206 ft | 423 kts | 44° |
| 2026-05-05 07:30 | 49.43018 | 18.30088 | 24740 ft | 420 kts | 44° |
| 2026-05-05 07:30 | 49.45076 | 18.33238 | 24504 ft | 416 kts | 44° |
| 2026-05-05 07:31 | 49.47120 | 18.36373 | 24249 ft | 414 kts | 44° |
| 2026-05-05 07:31 | 49.49155 | 18.39497 | 24015 ft | 412 kts | 44° |
| 2026-05-05 07:31 | 49.51176 | 18.42602 | 23784 ft | 411 kts | 44° |
| 2026-05-05 07:31 | 49.53196 | 18.45710 | 23551 ft | 409 kts | 45° |
| 2026-05-05 07:32 | 49.55204 | 18.48804 | 23272 ft | 408 kts | 44° |
| 2026-05-05 07:32 | 49.57210 | 18.51898 | 23009 ft | 407 kts | 45° |
| 2026-05-05 07:32 | 49.59203 | 18.54971 | 22738 ft | 405 kts | 45° |
| 2026-05-05 07:32 | 49.61194 | 18.58046 | 22467 ft | 405 kts | 45° |
| 2026-05-05 07:33 | 49.63176 | 18.61111 | 22199 ft | 402 kts | 45° |
| 2026-05-05 07:33 | 49.65145 | 18.64163 | 21935 ft | 402 kts | 45° |
| 2026-05-05 07:33 | 49.67146 | 18.67156 | 21671 ft | 399 kts | 40° |
| 2026-05-05 07:33 | 49.69391 | 18.69659 | 21413 ft | 398 kts | 30° |
| 2026-05-05 07:34 | 49.71864 | 18.71544 | 21155 ft | 395 kts | 20° |
| 2026-05-05 07:34 | 49.74480 | 18.72765 | 20902 ft | 393 kts | 11° |
| 2026-05-05 07:34 | 49.77141 | 18.73727 | 20648 ft | 393 kts | 12° |
| 2026-05-05 07:34 | 49.79795 | 18.74701 | 20398 ft | 391 kts | 12° |
| 2026-05-05 07:35 | 49.82429 | 18.75682 | 20147 ft | 389 kts | 12° |
| 2026-05-05 07:35 | 49.85014 | 18.76905 | 19897 ft | 389 kts | 23° |
| 2026-05-05 07:35 | 49.87317 | 18.79086 | 19648 ft | 389 kts | 40° |
| 2026-05-05 07:35 | 49.89143 | 18.82079 | 19415 ft | 387 kts | 56° |
| 2026-05-05 07:36 | 49.90427 | 18.85775 | 19187 ft | 384 kts | 72° |
| 2026-05-05 07:36 | 49.91035 | 18.89724 | 18946 ft | 380 kts | 87° |
| 2026-05-05 07:36 | 49.91002 | 18.93788 | 18710 ft | 376 kts | 98° |
| 2026-05-05 07:36 | 49.90774 | 18.97780 | 18465 ft | 368 kts | 98° |
| 2026-05-05 07:37 | 49.90551 | 19.01698 | 18230 ft | 361 kts | 98° |
| 2026-05-05 07:37 | 49.90332 | 19.05539 | 17968 ft | 354 kts | 98° |
| 2026-05-05 07:37 | 49.90116 | 19.09308 | 17703 ft | 347 kts | 98° |
| 2026-05-05 07:37 | 49.89901 | 19.13003 | 17436 ft | 342 kts | 98° |
| 2026-05-05 07:38 | 49.89686 | 19.16657 | 17163 ft | 339 kts | 98° |
| 2026-05-05 07:38 | 49.89473 | 19.20287 | 16911 ft | 337 kts | 98° |
| 2026-05-05 07:38 | 49.89267 | 19.23900 | 16660 ft | 336 kts | 97° |
| 2026-05-05 07:38 | 49.89342 | 19.27517 | 16402 ft | 338 kts | 84° |
| 2026-05-05 07:39 | 49.89889 | 19.31063 | 16146 ft | 339 kts | 72° |
| 2026-05-05 07:39 | 49.90810 | 19.34434 | 15896 ft | 339 kts | 68° |
| 2026-05-05 07:39 | 49.91756 | 19.37768 | 15646 ft | 337 kts | 68° |
| 2026-05-05 07:39 | 49.92691 | 19.41099 | 15397 ft | 336 kts | 69° |
| 2026-05-05 07:40 | 49.93619 | 19.44424 | 15155 ft | 336 kts | 69° |
| 2026-05-05 07:40 | 49.94538 | 19.47759 | 14911 ft | 335 kts | 72° |
| 2026-05-05 07:40 | 49.95164 | 19.51209 | 14664 ft | 331 kts | 82° |
| 2026-05-05 07:40 | 49.95628 | 19.54709 | 14423 ft | 330 kts | 82° |
| 2026-05-05 07:41 | 49.96095 | 19.58195 | 14185 ft | 329 kts | 82° |
| 2026-05-05 07:41 | 49.96557 | 19.61621 | 13958 ft | 328 kts | 82° |
| 2026-05-05 07:41 | 49.97028 | 19.65115 | 13713 ft | 326 kts | 82° |
| 2026-05-05 07:41 | 49.97494 | 19.68555 | 13440 ft | 324 kts | 82° |
| 2026-05-05 07:42 | 49.97957 | 19.71952 | 12896 ft | 319 kts | 81° |
| 2026-05-05 07:42 | 49.98413 | 19.75315 | 12267 ft | 316 kts | 81° |
| 2026-05-05 07:42 | 49.98864 | 19.78636 | 11660 ft | 313 kts | 81° |
| 2026-05-05 07:42 | 49.99308 | 19.81929 | 11059 ft | 309 kts | 81° |
| 2026-05-05 07:43 | 49.99747 | 19.85178 | 10470 ft | 306 kts | 80° |
| 2026-05-05 07:43 | 50.00181 | 19.88402 | 9879 ft | 303 kts | 80° |
| 2026-05-05 07:43 | 50.00604 | 19.91548 | 9320 ft | 297 kts | 80° |
| 2026-05-05 07:43 | 50.01015 | 19.94575 | 9178 ft | 276 kts | 80° |
| 2026-05-05 07:44 | 50.01405 | 19.97435 | 8794 ft | 267 kts | 81° |
| 2026-05-05 07:44 | 50.01785 | 20.00244 | 8260 ft | 263 kts | 81° |
| 2026-05-05 07:44 | 50.02155 | 20.02962 | 7676 ft | 252 kts | 81° |
| 2026-05-05 07:44 | 50.02514 | 20.05603 | 6980 ft | 248 kts | 81° |
| 2026-05-05 07:45 | 50.02878 | 20.08207 | 6282 ft | 245 kts | 76° |
| 2026-05-05 07:45 | 50.03664 | 20.10536 | 5553 ft | 244 kts | 50° |
| 2026-05-05 07:45 | 50.05013 | 20.12086 | 4842 ft | 242 kts | 21° |
| 2026-05-05 07:45 | 50.06645 | 20.12506 | 4317 ft | 238 kts | 353° |
| 2026-05-05 07:46 | 50.08155 | 20.11840 | 4144 ft | 218 kts | 330° |
| 2026-05-05 07:46 | 50.09304 | 20.10412 | 3781 ft | 209 kts | 305° |
| 2026-05-05 07:46 | 50.09980 | 20.08456 | 3346 ft | 204 kts | 282° |
| 2026-05-05 07:46 | 50.10147 | 20.06309 | 3025 ft | 198 kts | 268° |
| 2026-05-05 07:47 | 50.10191 | 20.04158 | 3023 ft | 198 kts | 266° |
| 2026-05-05 07:47 | 50.10245 | 20.02031 | 3010 ft | 195 kts | 266° |
| 2026-05-05 07:47 | 50.10299 | 19.99927 | 3007 ft | 194 kts | 265° |
| 2026-05-05 07:47 | 50.10346 | 19.97827 | 2990 ft | 194 kts | 262° |
| 2026-05-05 07:48 | 50.10168 | 19.95826 | 2827 ft | 180 kts | 252° |
| 2026-05-05 07:48 | 50.09918 | 19.93984 | 2589 ft | 166 kts | 251° |
| 2026-05-05 07:48 | 50.09690 | 19.92321 | 2387 ft | 149 kts | 251° |
| 2026-05-05 07:48 | 50.09477 | 19.90781 | 2193 ft | 143 kts | 251° |
| 2026-05-05 07:49 | 50.09267 | 19.89267 | 2009 ft | 142 kts | 252° |
| 2026-05-05 07:49 | 50.09057 | 19.87756 | 1810 ft | 144 kts | 252° |
| 2026-05-05 07:49 | 50.08841 | 19.86218 | 1615 ft | 146 kts | 252° |
| 2026-05-05 07:49 | 50.08639 | 19.84684 | 1422 ft | 146 kts | 255° |
| 2026-05-05 07:50 | 50.08430 | 19.83124 | 1230 ft | 146 kts | 256° |
| 2026-05-05 07:50 | 50.08207 | 19.81578 | 1036 ft | 147 kts | 256° |
| 2026-05-05 07:50 | 50.07988 | 19.80022 | 827 ft | 146 kts | 257° |
| 2026-05-05 07:50 | 50.07789 | 19.78597 | 791 ft | 115 kts | 259° |
| 2026-05-05 07:51 | 50.07658 | 19.77649 | 790 ft | 65 kts | 258° |
| 2026-05-05 07:51 | 50.07607 | 19.77274 | 793 ft | 18 kts | 257° |
| 2026-05-05 07:51 | 50.07590 | 19.77093 | 796 ft | 17 kts | 256° |
| 2026-05-05 07:51 | 50.07551 | 19.76905 | 796 ft | 17 kts | 238° |
| 2026-05-05 07:52 | 50.07437 | 19.76863 | 792 ft | 20 kts | 169° |
| 2026-05-05 07:52 | 50.07324 | 19.76938 | 790 ft | 17 kts | 118° |
| 2026-05-05 07:52 | 50.07331 | 19.77132 | 790 ft | 20 kts | 78° |
| 2026-05-05 07:52 | 50.07362 | 19.77363 | 790 ft | 23 kts | 78° |
| 2026-05-05 07:53 | 50.07399 | 19.77626 | 790 ft | 26 kts | 78° |
| 2026-05-05 07:53 | 50.07440 | 19.77917 | 790 ft | 28 kts | 77° |
| 2026-05-05 07:53 | 50.07482 | 19.78220 | 790 ft | 29 kts | 77° |